createdAt,value
2019-02-07T00:01:21.008Z,28.07
2019-02-07T00:03:50.038Z,29.23
2019-02-07T00:06:18.981Z,24.15
2019-02-07T00:08:47.848Z,24.85
2019-02-07T00:11:16.650Z,21.45
2019-02-07T00:13:45.439Z,24.20
2019-02-07T00:16:14.488Z,26.40
2019-02-07T00:18:43.628Z,30.05
2019-02-07T00:21:12.613Z,25.85
2019-02-07T00:23:41.653Z,29.45
2019-02-07T00:26:11.121Z,24.52
2019-02-07T00:28:40.067Z,26.97
2019-02-07T00:31:09.019Z,23.40
2019-02-07T00:33:38.325Z,23.62
2019-02-07T00:36:07.533Z,23.77
2019-02-07T00:38:36.588Z,27.87
2019-02-07T00:41:05.558Z,23.35
2019-02-07T00:43:34.375Z,24.20
2019-02-07T00:46:03.386Z,29.32
2019-02-07T00:48:32.330Z,29.63
2019-02-07T00:51:01.289Z,28.27
2019-02-07T00:53:30.098Z,33.70
2019-02-07T00:55:58.916Z,28.25
2019-02-07T00:58:27.724Z,30.90
2019-02-07T01:00:56.876Z,23.92
2019-02-07T01:03:26.309Z,25.80
2019-02-07T01:05:55.256Z,28.57
2019-02-07T01:08:24.468Z,23.05
2019-02-07T01:10:53.614Z,21.82
2019-02-07T01:13:22.806Z,32.88
2019-02-07T01:15:51.749Z,21.68
2019-02-07T01:18:21.577Z,25.92
2019-02-07T01:20:50.678Z,21.40
2019-02-07T01:23:19.546Z,28.52
2019-02-07T01:25:48.361Z,22.58
2019-02-07T01:28:17.389Z,26.73
2019-02-07T01:30:46.269Z,25.60
2019-02-07T01:33:15.626Z,33.00
2019-02-07T01:35:44.413Z,24.75
2019-02-07T01:38:13.264Z,25.72
2019-02-07T01:40:42.094Z,41.42
2019-02-07T01:43:11.398Z,26.75
2019-02-07T01:45:40.590Z,24.05
2019-02-07T01:48:09.430Z,28.05
2019-02-07T01:50:38.308Z,31.62
2019-02-07T01:53:07.242Z,31.40
2019-02-07T01:55:36.545Z,25.75
2019-02-07T01:58:05.583Z,28.52
2019-02-07T02:00:34.457Z,29.30
2019-02-07T02:03:03.413Z,32.23
2019-02-07T02:05:32.993Z,30.12
2019-02-07T02:08:02.139Z,35.40
2019-02-07T02:10:31.061Z,24.95
2019-02-07T02:12:59.861Z,24.72
2019-02-07T02:15:28.804Z,25.68
2019-02-07T02:17:57.675Z,25.92
2019-02-07T02:20:26.988Z,30.02
2019-02-07T02:22:56.195Z,25.77
2019-02-07T02:25:25.219Z,25.92
2019-02-07T02:27:54.084Z,26.85
2019-02-07T02:30:25.249Z,32.08
2019-02-07T02:32:54.189Z,25.88
2019-02-07T02:35:23.425Z,28.87
2019-02-07T02:37:52.361Z,25.80
2019-02-07T02:40:21.637Z,25.80
2019-02-07T02:42:50.825Z,26.00
2019-02-07T02:45:20.014Z,27.07
2019-02-07T02:47:49.056Z,30.52
2019-02-07T02:50:18.907Z,25.80
2019-02-07T02:52:47.846Z,26.62
2019-02-07T02:55:35.079Z,25.72
2019-02-07T02:58:04.612Z,26.48
2019-02-07T03:00:52.637Z,24.85
2019-02-07T03:03:38.802Z,24.98
2019-02-07T03:06:16.856Z,23.22
2019-02-07T03:09:05.718Z,30.95
2019-02-07T03:11:53.590Z,26.62
2019-02-07T03:14:33.654Z,29.65
2019-02-07T03:17:12.513Z,32.17
2019-02-07T03:20:10.050Z,28.98
2019-02-07T03:23:00.773Z,27.55
2019-02-07T03:25:43.900Z,29.37
2019-02-07T03:28:38.495Z,31.52
2019-02-07T03:31:23.983Z,31.85
2019-02-07T03:34:24.277Z,25.77
2019-02-07T03:37:10.830Z,32.42
2019-02-07T03:40:01.805Z,38.05
2019-02-07T03:42:40.434Z,43.38
2019-02-07T03:45:34.773Z,32.95
2019-02-07T03:48:25.774Z,32.93
2019-02-07T03:51:16.478Z,26.80
2019-02-07T03:54:11.541Z,24.82
2019-02-07T03:56:52.233Z,26.93
2019-02-07T03:59:40.220Z,29.35
2019-02-07T04:02:46.317Z,24.85
2019-02-07T04:05:37.178Z,29.10
2019-02-07T04:08:17.779Z,27.93
2019-02-07T04:11:08.715Z,33.15
2019-02-07T04:13:54.732Z,28.50
2019-02-07T04:16:42.239Z,25.30
2019-02-07T04:19:30.265Z,28.52
2019-02-07T04:22:22.804Z,27.75
2019-02-07T04:25:09.868Z,24.00
2019-02-07T04:27:57.738Z,17.45
2019-02-07T04:30:44.493Z,26.75
2019-02-07T04:33:41.474Z,29.72
2019-02-07T04:36:21.648Z,27.67
2019-02-07T04:39:06.793Z,24.20
2019-02-07T04:41:58.178Z,24.98
2019-02-07T04:44:44.943Z,24.20
2019-02-07T04:47:51.192Z,23.12
2019-02-07T04:50:38.057Z,30.02
2019-02-07T04:53:19.927Z,25.35
2019-02-07T04:56:20.693Z,29.30
2019-02-07T04:59:09.659Z,26.90
2019-02-07T05:01:51.715Z,32.33
2019-02-07T05:04:48.765Z,34.95
2019-02-07T05:07:36.698Z,40.50
2019-02-07T05:10:23.553Z,29.07
2019-02-07T05:13:10.158Z,43.05
2019-02-07T05:15:59.339Z,36.53
2019-02-07T05:18:38.735Z,32.88
2019-02-07T05:21:25.362Z,33.67
2019-02-07T05:24:22.389Z,35.95
2019-02-07T05:27:15.745Z,36.60
2019-02-07T05:29:51.325Z,36.30
2019-02-07T05:32:42.283Z,33.48
2019-02-07T05:35:28.315Z,33.65
2019-02-07T05:38:19.467Z,35.63
2019-02-07T05:41:01.687Z,29.52
2019-02-07T05:43:49.632Z,30.08
2019-02-07T05:46:36.288Z,31.90
2019-02-07T05:49:27.733Z,33.95
2019-02-07T05:52:14.494Z,39.95
2019-02-07T05:55:08.450Z,35.43
2019-02-07T05:57:47.930Z,32.25
2019-02-07T06:00:25.806Z,35.80
2019-02-07T06:03:02.664Z,34.78
2019-02-07T06:05:53.744Z,29.18
2019-02-07T06:08:59.809Z,36.25
2019-02-07T06:11:46.301Z,32.35
2019-02-07T06:14:39.870Z,36.65
2019-02-07T06:17:26.417Z,33.10
2019-02-07T06:20:23.594Z,34.30
2019-02-07T06:23:14.310Z,35.05
2019-02-07T06:26:03.657Z,34.60
2019-02-07T06:28:57.814Z,27.00
2019-02-07T06:31:44.555Z,29.10
2019-02-07T06:34:32.588Z,31.23
2019-02-07T06:37:23.818Z,29.72
2019-02-07T06:40:23.107Z,36.28
2019-02-07T06:43:20.266Z,34.53
2019-02-07T06:46:11.072Z,29.77
2019-02-07T06:48:52.280Z,33.40
2019-02-07T06:51:40.941Z,34.70
2019-02-07T06:54:27.781Z,35.90
2019-02-07T06:57:29.033Z,34.67
2019-02-07T07:00:26.301Z,44.48
2019-02-07T07:03:11.464Z,36.63
2019-02-07T07:05:59.530Z,35.50
2019-02-07T07:08:48.465Z,36.98
2019-02-07T07:11:48.782Z,30.27
2019-02-07T07:14:43.802Z,36.85
2019-02-07T07:17:42.629Z,34.43
2019-02-07T07:20:29.728Z,33.38
2019-02-07T07:23:16.497Z,30.25
2019-02-07T07:26:12.202Z,35.13
2019-02-07T07:28:59.189Z,30.52
2019-02-07T07:31:45.566Z,34.85
2019-02-07T07:34:45.527Z,32.50
2019-02-07T07:37:45.845Z,33.00
2019-02-07T07:40:33.051Z,32.78
2019-02-07T07:43:23.763Z,38.33
2019-02-07T07:46:07.436Z,31.93
2019-02-07T07:48:48.837Z,30.05
2019-02-07T07:51:52.164Z,26.75
2019-02-07T07:54:43.629Z,27.85
2019-02-07T07:57:29.351Z,37.98
2019-02-07T08:00:19.115Z,32.67
2019-02-07T08:03:16.641Z,32.95
2019-02-07T08:06:02.518Z,40.80
2019-02-07T08:08:49.667Z,39.55
2019-02-07T08:11:43.911Z,32.28
2019-02-07T08:14:38.093Z,35.08
2019-02-07T08:17:25.066Z,39.33
2019-02-07T08:20:18.865Z,36.15
2019-02-07T08:23:09.012Z,42.30
2019-02-07T08:26:05.927Z,34.27
2019-02-07T08:28:43.884Z,35.28
2019-02-07T08:31:30.868Z,33.28
2019-02-07T08:34:34.094Z,39.35
2019-02-07T08:37:16.609Z,45.17
2019-02-07T08:40:07.305Z,40.20
2019-02-07T08:43:07.598Z,34.03
2019-02-07T08:45:44.114Z,36.50
2019-02-07T08:48:44.401Z,38.63
2019-02-07T08:51:25.209Z,41.18
2019-02-07T08:54:13.326Z,31.75
2019-02-07T08:57:00.245Z,39.00
2019-02-07T08:59:59.724Z,41.08
2019-02-07T09:02:51.820Z,40.15
2019-02-07T09:05:42.293Z,36.33
2019-02-07T09:08:29.107Z,34.45
2019-02-07T09:11:16.149Z,36.70
2019-02-07T09:14:06.310Z,35.90
2019-02-07T09:16:49.245Z,36.17
2019-02-07T09:19:40.666Z,39.35
2019-02-07T09:22:23.934Z,33.48
2019-02-07T09:25:11.339Z,39.53
2019-02-07T09:28:04.093Z,39.48
2019-02-07T09:31:07.465Z,35.28
2019-02-07T09:33:54.153Z,40.65
2019-02-07T09:36:41.095Z,37.80
2019-02-07T09:39:27.972Z,37.75
2019-02-07T09:42:15.017Z,39.67
2019-02-07T09:44:56.585Z,40.80
2019-02-07T09:47:57.066Z,35.80
2019-02-07T09:50:47.704Z,36.15
2019-02-07T09:53:38.994Z,36.83
2019-02-07T09:56:24.813Z,41.33
2019-02-07T09:59:06.043Z,40.85
2019-02-07T10:01:52.875Z,46.10
2019-02-07T10:04:40.809Z,44.27
2019-02-07T10:07:28.779Z,44.60
2019-02-07T10:10:20.612Z,62.67
2019-02-07T10:13:21.133Z,95.60
2019-02-07T10:15:56.161Z,37.35
2019-02-07T10:18:42.739Z,34.95
2019-02-07T10:21:30.702Z,36.83
2019-02-07T10:24:20.099Z,34.53
2019-02-07T10:27:17.494Z,42.67
2019-02-07T10:30:08.151Z,35.65
2019-02-07T10:32:56.290Z,37.63
2019-02-07T10:35:42.203Z,35.30
2019-02-07T10:38:30.488Z,44.77
2019-02-07T10:41:16.982Z,36.45
2019-02-07T10:44:12.497Z,35.52
2019-02-07T10:46:58.314Z,42.10
2019-02-07T10:49:59.022Z,41.95
2019-02-07T10:52:40.234Z,40.30
2019-02-07T10:55:23.892Z,36.05
2019-02-07T10:58:12.114Z,30.80
2019-02-07T11:01:09.013Z,32.58
2019-02-07T11:04:02.818Z,33.75
2019-02-07T11:06:52.270Z,33.23
2019-02-07T11:09:39.142Z,36.17
2019-02-07T11:12:29.974Z,36.33
2019-02-07T11:15:10.105Z,38.75
2019-02-07T11:18:00.439Z,35.10
2019-02-07T11:21:00.594Z,42.23
2019-02-07T11:23:51.640Z,29.92
2019-02-07T11:26:56.580Z,34.90
2019-02-07T11:29:56.565Z,34.20
2019-02-07T11:32:52.008Z,38.25
2019-02-07T11:35:48.840Z,26.93
2019-02-07T11:38:40.417Z,25.77
2019-02-07T11:41:28.585Z,32.08
2019-02-07T11:44:11.034Z,35.38
2019-02-07T11:46:51.187Z,30.72
2019-02-07T11:49:48.409Z,35.23
2019-02-07T11:52:48.421Z,28.65
2019-02-07T11:55:35.301Z,33.15
2019-02-07T11:58:31.750Z,36.58
2019-02-07T12:01:15.645Z,34.73
2019-02-07T12:03:53.791Z,30.30
2019-02-07T12:06:44.570Z,32.85
2019-02-07T12:09:41.508Z,30.32
2019-02-07T12:12:28.926Z,30.25
2019-02-07T12:15:19.637Z,29.65
2019-02-07T12:18:07.055Z,32.30
2019-02-07T12:21:04.584Z,26.60
2019-02-07T12:23:51.097Z,29.48
2019-02-07T12:26:38.329Z,30.70
2019-02-07T12:29:31.989Z,29.37
2019-02-07T12:32:19.488Z,30.30
2019-02-07T12:35:10.489Z,34.13
2019-02-07T12:38:10.793Z,29.75
2019-02-07T12:40:55.268Z,40.05
2019-02-07T12:43:42.113Z,31.15
2019-02-07T12:46:25.778Z,28.50
2019-02-07T12:49:29.010Z,36.20
2019-02-07T12:52:04.722Z,32.83
2019-02-07T12:55:05.073Z,30.35
2019-02-07T12:57:51.857Z,26.50
2019-02-07T13:00:34.565Z,25.90
2019-02-07T13:03:38.542Z,26.17
2019-02-07T13:06:29.135Z,29.00
2019-02-07T13:09:29.185Z,31.77
2019-02-07T13:12:09.297Z,27.13
2019-02-07T13:15:00.470Z,27.42
2019-02-07T13:17:48.634Z,33.30
2019-02-07T13:20:36.684Z,26.33
2019-02-07T13:23:37.264Z,24.65
2019-02-07T13:26:15.420Z,24.20
2019-02-07T13:29:02.408Z,27.10
2019-02-07T13:31:50.337Z,27.90
2019-02-07T13:34:28.537Z,27.00
2019-02-07T13:37:09.932Z,27.25
2019-02-07T13:39:58.855Z,27.25
2019-02-07T13:42:45.702Z,24.00
2019-02-07T13:45:52.372Z,23.70
2019-02-07T13:48:39.121Z,22.20
2019-02-07T13:51:26.247Z,24.87
2019-02-07T13:54:32.457Z,17.20
2019-02-07T13:57:19.171Z,13.77
2019-02-07T13:59:56.457Z,18.10
2019-02-07T14:02:59.465Z,17.67
2019-02-07T14:05:56.631Z,17.00
2019-02-07T14:08:46.083Z,14.80
2019-02-07T14:11:37.425Z,19.20
2019-02-07T14:14:24.557Z,4.10
2019-02-07T14:17:15.601Z,5.17
2019-02-07T14:20:07.957Z,6.00
2019-02-07T14:23:03.427Z,9.40
2019-02-07T14:25:57.995Z,12.57
2019-02-07T14:28:40.607Z,3.93
2019-02-07T14:31:33.514Z,4.40
2019-02-07T14:34:30.866Z,3.50
2019-02-07T14:37:11.171Z,8.73
2019-02-07T14:40:11.542Z,4.37
2019-02-07T14:43:02.526Z,4.70
2019-02-07T14:45:49.736Z,8.07
2019-02-07T14:48:25.757Z,4.40
2019-02-07T14:50:55.806Z,4.17
2019-02-07T14:53:25.031Z,6.63
2019-02-07T14:55:53.997Z,6.17
2019-02-07T14:58:22.906Z,4.23
2019-02-07T15:00:52.207Z,9.30
2019-02-07T15:03:21.772Z,34.37
2019-02-07T15:05:50.992Z,43.37
2019-02-07T15:08:19.964Z,27.67
2019-02-07T15:10:48.845Z,65.60
2019-02-07T15:13:18.091Z,82.67
2019-02-07T15:15:46.970Z,28.73
2019-02-07T15:18:16.105Z,23.90
2019-02-07T15:20:44.985Z,14.20
2019-02-07T15:23:13.892Z,10.40
2019-02-07T15:25:43.026Z,11.30
2019-02-07T15:28:11.974Z,4.53
2019-02-07T15:30:40.774Z,6.80
2019-02-07T15:33:09.851Z,6.65
2019-02-07T15:35:42.518Z,7.80
2019-02-07T15:38:11.797Z,6.90
2019-02-07T15:40:41.529Z,7.67
2019-02-07T15:43:10.611Z,7.97
2019-02-07T15:45:40.093Z,10.33
2019-02-07T15:48:09.619Z,9.73
2019-02-07T15:50:40.030Z,7.23
2019-02-07T15:53:10.463Z,11.90
2019-02-07T15:55:39.993Z,19.32
2019-02-07T15:58:09.294Z,11.50
2019-02-07T16:00:54.244Z,9.33
2019-02-07T16:03:45.289Z,7.07
2019-02-07T16:06:14.191Z,9.53
2019-02-07T16:08:43.156Z,8.40
2019-02-07T16:11:12.276Z,7.20
2019-02-07T16:13:41.266Z,9.88
2019-02-07T16:16:10.145Z,14.80
2019-02-07T16:18:41.748Z,15.10
2019-02-07T16:21:09.592Z,23.20
2019-02-07T16:23:39.818Z,24.82
2019-02-07T16:26:09.568Z,44.58
2019-02-07T16:28:39.560Z,31.97
2019-02-07T16:31:09.337Z,21.60
2019-02-07T16:33:38.327Z,15.20
2019-02-07T16:36:07.581Z,13.45
2019-02-07T16:38:36.915Z,13.08
2019-02-07T16:41:06.583Z,13.80
2019-02-07T16:43:35.633Z,15.28
2019-02-07T16:46:05.694Z,12.20
2019-02-07T16:48:34.733Z,15.53
2019-02-07T16:51:04.227Z,11.53
2019-02-07T16:53:33.673Z,14.58
2019-02-07T16:56:03.239Z,11.20
2019-02-07T16:58:32.443Z,11.95
2019-02-07T17:01:01.431Z,10.60
2019-02-07T17:03:30.293Z,15.95
2019-02-07T17:05:59.161Z,14.87
2019-02-07T17:08:27.966Z,16.65
2019-02-07T17:10:56.842Z,17.77
2019-02-07T17:13:25.641Z,20.35
2019-02-07T17:15:54.839Z,19.00
2019-02-07T17:18:23.765Z,21.00
2019-02-07T17:20:52.719Z,22.13
2019-02-07T17:23:21.498Z,23.20
2019-02-07T17:25:50.613Z,26.65
2019-02-07T17:28:19.469Z,30.30
2019-02-07T17:30:48.401Z,35.70
2019-02-07T17:33:17.266Z,35.95
2019-02-07T17:35:46.514Z,35.08
2019-02-07T17:38:15.386Z,30.43
2019-02-07T17:40:44.424Z,40.83
2019-02-07T17:43:13.770Z,41.33
2019-02-07T17:45:42.726Z,43.45
2019-02-07T17:48:11.569Z,39.20
2019-02-07T17:50:40.548Z,33.70
2019-02-07T17:53:09.497Z,33.70
2019-02-07T17:55:38.353Z,27.48
2019-02-07T17:58:07.944Z,27.22
2019-02-07T18:00:55.383Z,32.58
2019-02-07T18:03:24.321Z,28.42
2019-02-07T18:05:53.266Z,33.75
2019-02-07T18:08:22.434Z,22.32
2019-02-07T18:10:51.770Z,35.52
2019-02-07T18:13:21.045Z,37.25
2019-02-07T18:15:50.354Z,27.15
2019-02-07T18:18:19.514Z,31.02
2019-02-07T18:20:48.973Z,33.15
2019-02-07T18:23:17.751Z,27.50
2019-02-07T18:25:47.329Z,28.90
2019-02-07T18:28:16.114Z,28.92
2019-02-07T18:30:44.976Z,28.32
2019-02-07T18:33:14.086Z,25.52
2019-02-07T18:35:43.185Z,28.05
2019-02-07T18:38:12.108Z,30.08
2019-02-07T18:40:40.894Z,27.75
2019-02-07T18:43:09.828Z,26.15
2019-02-07T18:45:38.809Z,23.50
2019-02-07T18:48:07.897Z,26.65
2019-02-07T18:50:37.261Z,14.95
2019-02-07T18:53:06.414Z,18.23
2019-02-07T18:55:35.269Z,12.53
2019-02-07T18:58:05.943Z,24.75
2019-02-07T19:00:35.001Z,18.17
2019-02-07T19:03:04.946Z,15.05
2019-02-07T19:05:33.897Z,12.50
2019-02-07T19:08:02.682Z,15.32
2019-02-07T19:10:31.800Z,14.30
2019-02-07T19:13:01.057Z,23.75
2019-02-07T19:15:33.772Z,26.02
2019-02-07T19:18:02.771Z,14.87
2019-02-07T19:20:31.638Z,11.93
2019-02-07T19:23:00.615Z,13.65
2019-02-07T19:25:29.454Z,9.18
2019-02-07T19:27:58.697Z,9.23
2019-02-07T19:30:29.467Z,14.55
2019-02-07T19:32:58.618Z,11.43
2019-02-07T19:35:27.473Z,9.55
2019-02-07T19:37:56.405Z,15.23
2019-02-07T19:40:25.605Z,13.95
2019-02-07T19:42:55.001Z,10.30
2019-02-07T19:45:23.913Z,9.10
2019-02-07T19:47:54.671Z,15.38
2019-02-07T19:50:24.984Z,14.60
2019-02-07T19:52:53.853Z,13.35
2019-02-07T19:55:27.264Z,23.50
2019-02-07T19:57:56.486Z,21.15
2019-02-07T20:00:27.824Z,16.02
2019-02-07T20:02:57.249Z,11.30
2019-02-07T20:05:26.197Z,8.20
2019-02-07T20:07:55.133Z,13.70
2019-02-07T20:10:25.119Z,10.72
2019-02-07T20:12:54.485Z,8.30
2019-02-07T20:15:28.320Z,12.15
2019-02-07T20:17:59.790Z,7.22
2019-02-07T20:20:28.057Z,7.22
2019-02-07T20:22:56.994Z,9.30
2019-02-07T20:25:26.021Z,10.98
2019-02-07T20:27:54.876Z,9.40
2019-02-07T20:30:35.199Z,12.47
2019-02-07T20:33:04.854Z,11.65
2019-02-07T20:35:34.026Z,11.05
2019-02-07T20:38:09.513Z,11.05
2019-02-07T20:40:38.921Z,12.30
2019-02-07T20:43:08.074Z,12.30
2019-02-07T20:45:36.992Z,18.92
2019-02-07T20:48:07.920Z,16.73
2019-02-07T20:50:36.846Z,18.77
2019-02-07T20:53:07.178Z,21.35
2019-02-07T20:55:36.104Z,19.77
2019-02-07T20:58:05.617Z,20.17
2019-02-07T21:00:35.920Z,25.00
2019-02-07T21:03:05.625Z,18.07
2019-02-07T21:05:34.569Z,17.12
2019-02-07T21:08:04.085Z,19.37
2019-02-07T21:10:33.808Z,21.30
2019-02-07T21:13:02.742Z,18.77
2019-02-07T21:15:32.295Z,16.93
2019-02-07T21:18:01.164Z,14.83
2019-02-07T21:20:30.213Z,13.58
2019-02-07T21:22:59.985Z,15.15
2019-02-07T21:25:31.686Z,14.95
2019-02-07T21:28:00.541Z,16.70
2019-02-07T21:30:30.653Z,15.88
2019-02-07T21:32:59.706Z,12.82
2019-02-07T21:35:29.130Z,17.15
2019-02-07T21:37:58.278Z,17.73
2019-02-07T21:40:28.733Z,23.57
2019-02-07T21:42:58.809Z,22.67
2019-02-07T21:45:27.754Z,17.17
2019-02-07T21:47:57.166Z,12.10
2019-02-07T21:50:27.378Z,23.00
2019-02-07T21:52:56.513Z,17.73
2019-02-07T21:55:27.669Z,17.35
2019-02-07T21:57:56.746Z,14.03
2019-02-07T22:00:28.011Z,15.15
2019-02-07T22:02:57.001Z,22.17
2019-02-07T22:05:26.963Z,23.42
2019-02-07T22:07:55.821Z,22.35
2019-02-07T22:10:24.744Z,22.07
2019-02-07T22:12:53.686Z,16.93
2019-02-07T22:15:23.139Z,17.65
2019-02-07T22:17:52.417Z,19.00
2019-02-07T22:20:22.805Z,22.15
2019-02-07T22:22:51.738Z,23.45
2019-02-07T22:25:21.452Z,21.35
2019-02-07T22:27:50.404Z,21.20
2019-02-07T22:30:22.045Z,18.77
2019-02-07T22:32:51.229Z,17.77
2019-02-07T22:35:20.144Z,17.25
2019-02-07T22:37:49.012Z,17.80
2019-02-07T22:40:19.661Z,15.63
2019-02-07T22:42:48.593Z,16.52
2019-02-07T22:45:18.268Z,18.65
2019-02-07T22:47:48.137Z,15.03
2019-02-07T22:50:19.229Z,16.70
2019-02-07T22:52:48.109Z,14.80
2019-02-07T22:55:17.320Z,20.17
2019-02-07T22:57:46.276Z,13.62
2019-02-07T23:00:50.974Z,17.35
2019-02-07T23:03:20.113Z,16.17
2019-02-07T23:05:49.221Z,15.75
2019-02-07T23:08:18.169Z,17.42
2019-02-07T23:10:47.369Z,14.38
2019-02-07T23:13:16.241Z,17.00
2019-02-07T23:15:45.088Z,12.00
2019-02-07T23:18:13.961Z,17.82
2019-02-07T23:20:43.069Z,14.33
2019-02-07T23:23:12.365Z,18.73
2019-02-07T23:25:41.529Z,20.10
2019-02-07T23:28:10.477Z,20.48
2019-02-07T23:30:39.447Z,18.80
2019-02-07T23:33:08.463Z,19.52
2019-02-07T23:35:37.636Z,21.77
2019-02-07T23:38:06.920Z,24.00
2019-02-07T23:40:35.942Z,22.98
2019-02-07T23:43:06.594Z,18.95
2019-02-07T23:45:35.514Z,18.95
2019-02-07T23:48:04.962Z,17.80
2019-02-07T23:50:34.136Z,16.60
2019-02-07T23:53:03.230Z,24.12
2019-02-07T23:55:32.084Z,19.80
2019-02-07T23:58:01.216Z,18.67
